Terminal Aerodrome Forecast
Issued by NWS Goodland, KS

Home | Current Version | Previous Version | Text Only | Print | Product List | Glossary On
Versions: 1 2 3 4 5 6 7 8 9 10 11 12 13 14 15 16 17 18 19 20 21 22 23 24 25
514
FTUS43 KGLD 231512 AAB
TAFGLD
TAF AMD
KGLD 231512Z 2315/2412 09020G28KT 5SM BR OVC003
     FM231700 19020G30KT P6SM VCSH SCT010 SCT070
     FM232100 13019G29KT P6SM VCSH SCT060
     FM240000 34020G30KT 1 1/2SM -SHSN BKN015=

USA.gov is the U.S. government's official web portal to all federal, state and local government web resources and services.